Portland, North Dakota
Current Conditions -  °F | °C
As of 2:53 PM on Tuesday 21 Oct 2014 (Local Time) from KGFK Reporting Station
Clear Clear  
Wind Chill: 18°   Ceiling: Unl
Heat Index: 18°   Visibility: 10mi
Dew Point:   Wind: 29mph
Humidity: 43%   Direction: 140°SE
Pressure: 29.87"   Gusts: 36mph
Location:  47.5°N, 97.37°W
Report Text: KGFK 211953Z 14025G31KT 10SM CLR 18/06 A2987 RMK AO2 PK WND 14031/1947 SLP120 T01830056
Loading
Personal Weather Stations






























Interactive Weather Map
Tropical Storm Tracking
New forecast layout! Learn more

10-Day Weather Forecast

Advertisements
Track Severe Weather on mobile